Time,TemperatureF,DewpointF,PressureIn,WindDirection,WindDirectionDegrees,WindSpeedMPH,WindSpeedGustMPH,Humidity,HourlyPrecipIn,Conditions,Clouds,dailyrainin,SolarRadiationWatts/m^2,SoftwareType,DateUTC
2013-05-25 00:06:00,48.9,48.7,29.74,NE,36,3.0,6.0,99,0.00,-RA,SCT,0.00,0.0,WeatherDisplay:10.37,2013-05-25 04:06:00,
2013-05-25 00:17:00,48.9,48.6,29.73,ENE,74,3.0,7.0,99,0.00,-RA,SCT,0.00,0.0,WeatherDisplay:10.37,2013-05-25 04:17:00,
2013-05-25 00:22:00,48.7,48.5,29.73,NE,51,3.0,8.0,99,0.00,-RA,SCT,0.00,0.0,WeatherDisplay:10.37,2013-05-25 04:22:00,
2013-05-25 00:36:00,48.7,48.5,29.72,NE,37,3.0,10.0,99,0.01,-RA,SCT,0.01,0.0,WeatherDisplay:10.37,2013-05-25 04:36:00,
2013-05-25 00:47:00,48.7,48.4,29.73,North,9,3.0,10.0,99,0.00,-RA,SCT,0.01,0.0,WeatherDisplay:10.37,2013-05-25 04:47:00,
2013-05-25 00:56:00,48.6,48.3,29.73,North,2,1.0,6.0,99,0.00,-RA,SCT,0.01,0.0,WeatherDisplay:10.37,2013-05-25 04:56:00,
2013-05-25 01:07:00,48.7,48.5,29.73,ENE,59,2.0,6.0,99,0.00,-RA,SCT,0.01,0.0,WeatherDisplay:10.37,2013-05-25 05:07:00,
2013-05-25 01:22:00,48.7,48.5,29.70,North,349,3.0,8.0,99,0.02,-RA,SCT,0.04,0.0,WeatherDisplay:10.37,2013-05-25 05:22:00,
2013-05-25 01:33:00,48.6,48.3,29.72,NE,40,2.0,6.0,99,0.00,-RA,SCT,0.04,0.0,WeatherDisplay:10.37,2013-05-25 05:33:00,
2013-05-25 01:47:00,48.6,48.3,29.71,NNE,32,3.0,9.0,99,0.00,-RA,SCT,0.04,0.0,WeatherDisplay:10.37,2013-05-25 05:47:00,
2013-05-25 02:07:00,48.7,48.5,29.72,ENE,64,1.0,9.0,99,0.01,-RA,SCT,0.05,0.0,WeatherDisplay:10.37,2013-05-25 06:07:00,
2013-05-25 02:21:00,48.7,48.5,29.71,North,9,5.0,8.0,99,0.01,-RA,SCT,0.06,0.0,WeatherDisplay:10.37,2013-05-25 06:21:00,
2013-05-25 02:32:00,48.6,48.3,29.70,NNE,16,2.0,8.0,99,0.01,-RA,SCT,0.07,0.0,WeatherDisplay:10.37,2013-05-25 06:32:00,
2013-05-25 02:47:00,48.6,48.3,29.70,North,359,2.0,8.0,99,0.01,-RA,SCT,0.09,0.0,WeatherDisplay:10.37,2013-05-25 06:47:00,
2013-05-25 02:57:00,48.6,48.3,29.70,NNE,18,1.0,8.0,99,0.00,-RA,SCT,0.09,0.0,WeatherDisplay:10.37,2013-05-25 06:57:00,
2013-05-25 03:05:00,48.6,48.3,29.70,NNE,31,1.0,6.0,99,0.00,-RA,SCT,0.09,0.0,WeatherDisplay:10.37,2013-05-25 07:05:00,
2013-05-25 03:27:00,48.4,48.1,29.70,North,6,1.0,6.0,99,0.01,-RA,SCT,0.11,0.0,WeatherDisplay:10.37,2013-05-25 07:27:00,
2013-05-25 03:33:00,48.4,48.1,29.70,NE,42,2.0,7.0,99,0.00,-RA,SCT,0.11,0.0,WeatherDisplay:10.37,2013-05-25 07:33:00,
2013-05-25 03:42:00,48.6,48.3,29.70,NE,42,1.0,7.0,99,0.00,-RA,SCT,0.11,0.0,WeatherDisplay:10.37,2013-05-25 07:42:00,
2013-05-25 03:47:00,48.6,48.3,29.70,NE,53,0.0,5.0,99,0.00,-RA,SCT,0.11,0.0,WeatherDisplay:10.37,2013-05-25 07:47:00,
2013-05-25 03:56:00,48.6,48.3,29.70,NNW,339,1.0,6.0,99,0.00,-RA,SCT,0.12,0.0,WeatherDisplay:10.37,2013-05-25 07:56:00,
2013-05-25 04:07:00,48.6,48.3,29.69,NNE,22,1.0,6.0,99,0.01,-RA,SCT,0.13,0.0,WeatherDisplay:10.37,2013-05-25 08:07:00,
2013-05-25 04:21:00,48.5,48.2,29.68,North,349,1.0,8.0,99,0.00,-RA,SCT,0.14,0.0,WeatherDisplay:10.37,2013-05-25 08:21:00,
2013-05-25 04:26:00,48.4,48.1,29.69,North,352,1.0,6.0,99,0.00,-RA,SCT,0.14,0.0,WeatherDisplay:10.37,2013-05-25 08:26:00,
2013-05-25 04:32:00,48.4,48.1,29.68,North,355,2.0,5.0,99,0.01,-RA,SCT,0.15,0.0,WeatherDisplay:10.37,2013-05-25 08:32:00,
2013-05-25 04:41:00,48.4,48.1,29.69,NNE,15,2.0,6.0,99,0.05,-RA,SCT,0.20,0.0,WeatherDisplay:10.37,2013-05-25 08:41:00,
2013-05-25 04:46:00,48.2,47.9,29.69,NNE,16,2.0,7.0,99,0.02,-RA,SCT,0.22,0.0,WeatherDisplay:10.37,2013-05-25 08:46:00,
2013-05-25 04:56:00,48.2,47.9,29.68,North,1,1.0,6.0,99,0.00,-RA,SCT,0.22,0.0,WeatherDisplay:10.37,2013-05-25 08:56:00,
2013-05-25 05:02:00,48.2,47.9,29.68,North,6,2.0,6.0,99,0.00,-RA,SCT,0.22,0.0,WeatherDisplay:10.37,2013-05-25 09:02:00,
2013-05-25 05:21:00,48.2,47.9,29.68,NE,44,3.0,8.0,99,0.00,-RA,SCT,0.22,0.0,WeatherDisplay:10.37,2013-05-25 09:21:00,
2013-05-25 05:26:00,48.0,47.8,29.68,ENE,69,1.0,8.0,99,0.01,-RA,SCT,0.24,0.0,WeatherDisplay:10.37,2013-05-25 09:26:00,
2013-05-25 05:41:00,48.0,47.8,29.68,NNE,20,2.0,10.0,99,0.00,-RA,SCT,0.24,0.0,WeatherDisplay:10.37,2013-05-25 09:41:00,
2013-05-25 05:47:00,48.2,47.9,29.69,NNW,347,2.0,6.0,99,0.00,-RA,SCT,0.24,0.0,WeatherDisplay:10.37,2013-05-25 09:47:00,
2013-05-25 05:56:00,48.2,47.9,29.68,North,353,1.0,9.0,99,0.00,-RA,SCT,0.24,0.0,WeatherDisplay:10.37,2013-05-25 09:56:00,
2013-05-25 06:02:00,48.2,47.9,29.68,North,352,1.0,9.0,99,0.01,-RA,SCT,0.25,0.0,WeatherDisplay:10.37,2013-05-25 10:02:00,
2013-05-25 06:16:00,48.1,47.8,29.68,WNW,299,2.0,5.0,99,0.00,-RA,SCT,0.25,0.0,WeatherDisplay:10.37,2013-05-25 10:16:00,
2013-05-25 06:26:00,48.0,47.8,29.68,North,351,2.0,7.0,99,0.00,-RA,SCT,0.25,0.0,WeatherDisplay:10.37,2013-05-25 10:26:00,
2013-05-25 06:32:00,48.0,47.8,29.68,NNE,14,3.0,7.0,99,0.00,-RA,SCT,0.25,0.0,WeatherDisplay:10.37,2013-05-25 10:32:00,
2013-05-25 06:41:00,48.2,47.9,29.68,NNE,29,1.0,5.0,99,0.00,-RA,SCT,0.25,0.0,WeatherDisplay:10.37,2013-05-25 10:41:00,
2013-05-25 06:47:00,48.2,47.9,29.68,NNE,30,1.0,5.0,99,0.00,-RA,SCT,0.25,0.0,WeatherDisplay:10.37,2013-05-25 10:47:00,
2013-05-25 06:56:00,48.2,47.9,29.68,ENE,69,2.0,6.0,99,0.00,-RA,SCT,0.25,0.0,WeatherDisplay:10.37,2013-05-25 10:56:00,
2013-05-25 07:07:00,48.2,47.9,29.68,East,87,1.0,6.0,99,0.00,-RA,SCT,0.25,0.0,WeatherDisplay:10.37,2013-05-25 11:07:00,
2013-05-25 07:21:00,48.6,48.3,29.68,NNE,25,2.0,6.0,99,0.01,-RA,SCT,0.26,0.0,WeatherDisplay:10.37,2013-05-25 11:21:00,
2013-05-25 07:26:00,48.6,48.3,29.68,NNE,24,2.0,7.0,99,0.00,-RA,SCT,0.26,0.0,WeatherDisplay:10.37,2013-05-25 11:26:00,
2013-05-25 07:36:00,48.4,48.1,29.68,NNE,15,1.0,7.0,99,0.00,-RA,SCT,0.26,0.0,WeatherDisplay:10.37,2013-05-25 11:36:00,
2013-05-25 07:51:00,48.6,48.3,29.68,NNW,341,2.0,8.0,99,0.00,-RA,SCT,0.26,0.0,WeatherDisplay:10.37,2013-05-25 11:51:00,
2013-05-25 08:03:00,48.6,48.3,29.68,ENE,69,2.0,8.0,99,0.00,-RA,SCT,0.26,0.0,WeatherDisplay:10.37,2013-05-25 12:03:00,
2013-05-25 08:11:00,48.7,48.4,29.67,East,86,3.0,6.0,99,0.00,-RA,SCT,0.26,0.0,WeatherDisplay:10.37,2013-05-25 12:11:00,
2013-05-25 08:17:00,48.7,48.5,29.67,NNW,343,2.0,6.0,99,0.01,-RA,SCT,0.27,0.0,WeatherDisplay:10.37,2013-05-25 12:17:00,
2013-05-25 08:27:00,48.7,48.5,29.67,NNW,340,1.0,6.0,99,0.00,-RA,SCT,0.27,0.0,WeatherDisplay:10.37,2013-05-25 12:27:00,
2013-05-25 08:33:00,48.8,48.6,29.68,North,350,2.0,7.0,99,0.00,-RA,SCT,0.27,0.0,WeatherDisplay:10.37,2013-05-25 12:33:00,
2013-05-25 08:42:00,48.9,48.7,29.67,NNW,343,1.0,7.0,99,0.00,-RA,SCT,0.27,0.0,WeatherDisplay:10.37,2013-05-25 12:42:00,
2013-05-25 08:50:00,49.1,48.8,29.67,NNE,33,1.0,7.0,99,0.01,-RA,SCT,0.28,0.0,WeatherDisplay:10.37,2013-05-25 12:50:00,
2013-05-25 08:55:00,49.2,49.0,29.67,NNE,16,2.0,6.0,99,0.00,-RA,SCT,0.28,0.0,WeatherDisplay:10.37,2013-05-25 12:55:00,
2013-05-25 09:01:00,49.2,48.9,29.67,North,3,3.0,11.0,99,0.00,-RA,SCT,0.28,0.0,WeatherDisplay:10.37,2013-05-25 13:01:00,
2013-05-25 09:10:00,49.5,49.2,29.67,NNE,16,3.0,8.0,99,0.00,-RA,SCT,0.28,0.0,WeatherDisplay:10.37,2013-05-25 13:10:00,
2013-05-25 09:15:00,49.3,49.0,29.67,North,3,2.0,9.0,99,0.00,-RA,SCT,0.28,0.0,WeatherDisplay:10.37,2013-05-25 13:15:00,
2013-05-25 09:25:00,49.3,49.0,29.67,NE,36,1.0,10.0,99,0.00,-RA,SCT,0.28,0.0,WeatherDisplay:10.37,2013-05-25 13:25:00,
2013-05-25 09:31:00,49.6,49.3,29.66,ENE,60,1.0,6.0,99,0.00,-RA,SCT,0.28,0.0,WeatherDisplay:10.37,2013-05-25 13:31:00,
2013-05-25 09:40:00,50.0,49.8,29.66,North,359,2.0,11.0,99,0.00,-RA,SCT,0.28,0.0,WeatherDisplay:10.37,2013-05-25 13:40:00,
2013-05-25 09:46:00,50.2,49.9,29.66,North,353,2.0,10.0,99,0.00,-RA,SCT,0.28,0.0,WeatherDisplay:10.37,2013-05-25 13:46:00,
2013-05-25 09:55:00,50.3,50.1,29.66,NNE,29,1.0,8.0,99,0.00,-RA,SCT,0.28,0.0,WeatherDisplay:10.37,2013-05-25 13:55:00,
2013-05-25 10:01:00,50.4,50.1,29.66,NNW,347,3.0,10.0,99,0.00,-RA,SCT,0.28,0.0,WeatherDisplay:10.37,2013-05-25 14:01:00,
2013-05-25 10:10:00,50.0,49.8,29.66,NNE,25,1.0,5.0,99,0.00,-RA,SCT,0.28,0.0,WeatherDisplay:10.37,2013-05-25 14:10:00,
2013-05-25 10:16:00,50.2,49.9,29.66,NNE,31,2.0,11.0,99,0.00,-RA,SCT,0.28,0.0,WeatherDisplay:10.37,2013-05-25 14:16:00,
2013-05-25 10:25:00,50.2,49.9,29.66,NNE,25,2.0,7.0,99,0.00,-RA,SCT,0.29,0.0,WeatherDisplay:10.37,2013-05-25 14:25:00,
2013-05-25 10:31:00,50.4,50.1,29.66,North,2,1.0,6.0,99,0.00,-RA,SCT,0.29,0.0,WeatherDisplay:10.37,2013-05-25 14:31:00,
2013-05-25 10:40:00,50.5,50.2,29.66,North,5,5.0,9.0,99,0.00,-RA,SCT,0.29,0.0,WeatherDisplay:10.37,2013-05-25 14:40:00,
2013-05-25 10:46:00,50.4,50.1,29.66,NE,35,2.0,9.0,99,0.01,-RA,SCT,0.31,0.0,WeatherDisplay:10.37,2013-05-25 14:46:00,
2013-05-25 10:55:00,50.5,50.2,29.65,North,349,3.0,8.0,99,0.00,-RA,SCT,0.31,0.0,WeatherDisplay:10.37,2013-05-25 14:55:00,
2013-05-25 11:01:00,50.5,50.3,29.65,North,353,1.0,7.0,99,0.00,-RA,SCT,0.31,0.0,WeatherDisplay:10.37,2013-05-25 15:01:00,
2013-05-25 11:10:00,50.5,50.3,29.65,NE,34,5.0,8.0,99,0.00,BKN,SCT,0.31,0.0,WeatherDisplay:10.37,2013-05-25 15:10:00,
2013-05-25 11:16:00,50.6,50.4,29.65,NE,38,1.0,8.0,99,0.01,RA,SCT,0.32,0.0,WeatherDisplay:10.37,2013-05-25 15:16:00,
2013-05-25 11:26:00,50.7,50.4,29.65,NNE,12,3.0,10.0,99,0.00,BKN,SCT,0.32,0.0,WeatherDisplay:10.37,2013-05-25 15:26:00,
2013-05-25 11:31:00,50.9,50.6,29.64,NNE,26,3.0,8.0,99,0.00,BKN,SCT,0.32,0.0,WeatherDisplay:10.37,2013-05-25 15:31:00,
2013-05-25 11:40:00,51.1,50.8,29.63,NNE,29,5.0,9.0,99,0.01,RA,SCT,0.33,0.0,WeatherDisplay:10.37,2013-05-25 15:40:00,
2013-05-25 11:46:00,51.1,50.8,29.64,North,7,1.0,9.0,99,0.00,RA,SCT,0.33,0.0,WeatherDisplay:10.37,2013-05-25 15:46:00,
2013-05-25 11:55:00,51.4,51.2,29.64,North,3,2.0,11.0,99,0.00,-RA,SCT,0.33,0.0,WeatherDisplay:10.37,2013-05-25 15:55:00,
2013-05-25 12:01:00,51.2,51.0,29.64,NE,46,3.0,11.0,99,0.01,-RA,SCT,0.34,0.0,WeatherDisplay:10.37,2013-05-25 16:01:00,
2013-05-25 12:10:00,50.7,50.4,29.64,North,11,5.0,15.0,99,0.00,-RA,SCT,0.34,0.0,WeatherDisplay:10.37,2013-05-25 16:10:00,
2013-05-25 12:16:00,50.7,50.4,29.64,North,358,2.0,15.0,99,0.00,-RA,SCT,0.34,0.0,WeatherDisplay:10.37,2013-05-25 16:16:00,
2013-05-25 12:25:00,51.1,50.8,29.64,North,349,2.0,9.0,99,0.00,-RA,SCT,0.34,0.0,WeatherDisplay:10.37,2013-05-25 16:25:00,
2013-05-25 12:31:00,51.1,50.8,29.64,NNE,22,1.0,9.0,99,0.00,-RA,SCT,0.34,0.0,WeatherDisplay:10.37,2013-05-25 16:31:00,
2013-05-25 12:40:00,51.3,51.0,29.63,NNE,29,2.0,10.0,99,0.00,-RA,SCT,0.34,0.0,WeatherDisplay:10.37,2013-05-25 16:40:00,
2013-05-25 12:46:00,51.7,51.4,29.63,NNE,20,5.0,12.0,99,0.00,-RA,SCT,0.34,0.0,WeatherDisplay:10.37,2013-05-25 16:46:00,
2013-05-25 12:55:00,51.6,51.3,29.63,NE,36,3.0,12.0,99,0.00,-RA,SCT,0.34,0.0,WeatherDisplay:10.37,2013-05-25 16:55:00,
2013-05-25 13:01:00,51.4,51.2,29.63,NE,46,2.0,9.0,99,0.00,-RA,SCT,0.34,0.0,WeatherDisplay:10.37,2013-05-25 17:01:00,
2013-05-25 13:10:00,51.4,51.2,29.63,NW,323,5.0,11.0,99,0.00,OVC,SCT,0.34,0.0,WeatherDisplay:10.37,2013-05-25 17:10:00,
2013-05-25 13:16:00,51.4,51.2,29.63,North,0,3.0,10.0,99,0.00,OVC,SCT,0.34,0.0,WeatherDisplay:10.37,2013-05-25 17:16:00,
2013-05-25 13:26:00,51.3,51.0,29.63,NNE,12,2.0,6.0,99,0.00,OVC,SCT,0.34,0.0,WeatherDisplay:10.37,2013-05-25 17:26:00,
2013-05-25 13:33:00,51.3,51.0,29.63,NW,324,1.0,6.0,99,0.00,OVC,SCT,0.34,0.0,WeatherDisplay:10.37,2013-05-25 17:33:00,
2013-05-25 13:42:00,51.3,51.0,29.63,WNW,302,2.0,7.0,99,0.00,OVC,SCT,0.34,0.0,WeatherDisplay:10.37,2013-05-25 17:42:00,
2013-05-25 13:47:00,51.4,51.2,29.64,NNW,332,2.0,7.0,99,0.00,OVC,SCT,0.34,0.0,WeatherDisplay:10.37,2013-05-25 17:47:00,
2013-05-25 13:57:00,51.3,51.0,29.64,North,10,1.0,5.0,99,0.00,-RA,SCT,0.34,0.0,WeatherDisplay:10.37,2013-05-25 17:57:00,
2013-05-25 14:04:00,51.3,51.0,29.64,North,1,3.0,8.0,99,0.00,-RA,SCT,0.34,0.0,WeatherDisplay:10.37,2013-05-25 18:04:00,
2013-05-25 14:12:00,51.1,50.8,29.64,North,353,3.0,8.0,99,0.01,-RA,SCT,0.35,0.0,WeatherDisplay:10.37,2013-05-25 18:12:00,
2013-05-25 14:22:00,50.9,50.6,29.63,North,351,2.0,10.0,99,0.01,-RA,SCT,0.37,0.0,WeatherDisplay:10.37,2013-05-25 18:22:00,
2013-05-25 14:33:00,50.7,50.4,29.64,North,9,3.0,10.0,99,0.01,-RA,SCT,0.38,0.0,WeatherDisplay:10.37,2013-05-25 18:33:00,
2013-05-25 14:42:00,50.3,50.0,29.64,NNE,32,3.0,9.0,99,0.00,-RA,SCT,0.38,0.0,WeatherDisplay:10.37,2013-05-25 18:42:00,
2013-05-25 14:48:00,50.1,49.8,29.63,NNE,14,2.0,9.0,99,0.00,-RA,SCT,0.38,0.0,WeatherDisplay:10.37,2013-05-25 18:48:00,
2013-05-25 15:12:00,50.3,50.0,29.64,NNW,331,2.0,13.0,99,0.01,-RA,SCT,0.39,0.0,WeatherDisplay:10.37,2013-05-25 19:12:00,
2013-05-25 15:18:00,50.1,49.9,29.63,North,357,2.0,8.0,99,0.00,-RA,SCT,0.39,0.0,WeatherDisplay:10.37,2013-05-25 19:18:00,
2013-05-25 15:34:00,49.3,49.0,29.63,North,350,2.0,8.0,99,0.00,-RA,SCT,0.39,0.0,WeatherDisplay:10.37,2013-05-25 19:34:00,
2013-05-25 15:40:00,48.9,48.7,29.63,North,1,2.0,7.0,99,0.00,-RA,SCT,0.39,0.0,WeatherDisplay:10.37,2013-05-25 19:40:00,
2013-05-25 15:46:00,48.9,48.7,29.63,NNE,12,5.0,12.0,99,0.00,-RA,SCT,0.39,0.0,WeatherDisplay:10.37,2013-05-25 19:46:00,
2013-05-25 15:56:00,48.6,48.3,29.63,NNE,29,3.0,20.0,99,0.00,-RA,SCT,0.39,0.0,WeatherDisplay:10.37,2013-05-25 19:56:00,
2013-05-25 16:01:00,48.6,48.3,29.62,NE,49,2.0,8.0,99,0.00,-RA,SCT,0.39,0.0,WeatherDisplay:10.37,2013-05-25 20:01:00,
2013-05-25 16:18:00,47.7,47.4,29.64,NNE,16,3.0,11.0,99,0.00,-RA,SCT,0.39,0.0,WeatherDisplay:10.37,2013-05-25 20:18:00,
2013-05-25 16:29:00,47.1,46.8,29.64,NNE,26,2.0,10.0,99,0.01,-RA,SCT,0.40,0.0,WeatherDisplay:10.37,2013-05-25 20:29:00,
2013-05-25 16:46:00,46.0,45.7,29.64,NNW,338,3.0,15.0,99,0.00,-RA,SCT,0.40,0.0,WeatherDisplay:10.37,2013-05-25 20:46:00,
2013-05-25 16:56:00,45.9,45.6,29.64,North,360,1.0,10.0,99,0.00,-RA,SCT,0.40,0.0,WeatherDisplay:10.37,2013-05-25 20:56:00,
2013-05-25 17:10:00,45.6,45.3,29.64,North,7,3.0,12.0,99,0.00,-RA,SCT,0.40,0.0,WeatherDisplay:10.37,2013-05-25 21:10:00,
2013-05-25 17:44:00,45.1,44.9,29.65,North,8,2.0,12.0,99,0.00,-RA,SCT,0.40,0.0,WeatherDisplay:10.37,2013-05-25 21:44:00,
2013-05-25 17:51:00,45.0,44.7,29.64,NNE,12,3.0,8.0,99,0.00,-RA,SCT,0.40,0.0,WeatherDisplay:10.37,2013-05-25 21:51:00,
2013-05-25 18:16:00,44.3,44.1,29.65,NNE,31,2.0,8.0,99,0.01,RA,SCT,0.41,0.0,WeatherDisplay:10.37,2013-05-25 22:16:00,
2013-05-25 18:26:00,44.2,44.0,29.65,NE,50,2.0,6.0,99,0.00,RA,SCT,0.41,0.0,WeatherDisplay:10.37,2013-05-25 22:26:00,
2013-05-25 18:40:00,44.1,43.8,29.65,NE,51,3.0,9.0,99,0.00,RA,SCT,0.41,0.0,WeatherDisplay:10.37,2013-05-25 22:40:00,
2013-05-25 19:33:00,42.7,42.5,29.66,NNE,25,2.0,17.0,99,0.09,-RA,SCT,0.51,0.0,WeatherDisplay:10.37,2013-05-25 23:33:00,
2013-05-25 19:47:00,42.6,42.4,29.66,North,10,3.0,8.0,99,0.00,-RA,SCT,0.51,0.0,WeatherDisplay:10.37,2013-05-25 23:47:00,
2013-05-25 20:52:00,42.5,42.2,29.66,North,349,2.0,8.0,99,0.00,-RA,SCT,0.51,0.0,WeatherDisplay:10.37,2013-05-26 00:52:00,
2013-05-25 21:03:00,42.4,42.2,29.66,NNW,340,3.0,8.0,99,0.00,-RA,SCT,0.51,0.0,WeatherDisplay:10.37,2013-05-26 01:03:00,
2013-05-25 21:17:00,42.4,42.2,29.66,North,3,1.0,8.0,99,0.00,SCT,SCT,0.51,0.0,WeatherDisplay:10.37,2013-05-26 01:17:00,
2013-05-25 21:27:00,42.4,42.2,29.66,NNE,20,2.0,7.0,99,0.00,SCT,SCT,0.51,0.0,WeatherDisplay:10.37,2013-05-26 01:27:00,
2013-05-25 21:48:00,42.4,42.2,29.66,NNE,15,3.0,9.0,99,0.00,SCT,SCT,0.51,0.0,WeatherDisplay:10.37,2013-05-26 01:48:00,
2013-05-25 22:04:00,42.4,42.2,29.66,NE,41,1.0,7.0,99,0.00,SCT,SCT,0.51,0.0,WeatherDisplay:10.37,2013-05-26 02:04:00,
2013-05-25 22:12:00,42.4,42.2,29.66,NNE,16,1.0,3.0,99,0.00,OVC,SCT,0.51,0.0,WeatherDisplay:10.37,2013-05-26 02:12:00,
2013-05-25 22:18:00,42.4,42.2,29.66,North,10,1.0,7.0,99,0.00,OVC,SCT,0.51,0.0,WeatherDisplay:10.37,2013-05-26 02:18:00,
2013-05-25 22:27:00,42.4,42.2,29.66,North,4,3.0,12.0,99,0.00,OVC,SCT,0.51,0.0,WeatherDisplay:10.37,2013-05-26 02:27:00,
2013-05-25 22:34:00,42.4,42.2,29.65,North,5,1.0,12.0,99,0.00,OVC,SCT,0.51,0.0,WeatherDisplay:10.37,2013-05-26 02:34:00,
2013-05-25 22:43:00,42.4,42.1,29.65,NNW,339,3.0,8.0,99,0.00,OVC,SCT,0.51,0.0,WeatherDisplay:10.37,2013-05-26 02:43:00,
2013-05-25 22:52:00,42.3,42.0,29.66,WNW,301,3.0,8.0,99,0.00,OVC,SCT,0.51,0.0,WeatherDisplay:10.37,2013-05-26 02:52:00,
2013-05-25 22:58:00,42.3,42.0,29.65,NNW,335,3.0,9.0,99,0.00,OVC,SCT,0.51,0.0,WeatherDisplay:10.37,2013-05-26 02:58:00,
2013-05-25 23:13:00,42.2,42.0,29.65,NE,37,3.0,9.0,99,0.00,OVC,SCT,0.51,0.0,WeatherDisplay:10.37,2013-05-26 03:13:00,
2013-05-25 23:18:00,42.1,41.9,29.65,NE,42,3.0,11.0,99,0.00,OVC,SCT,0.51,0.0,WeatherDisplay:10.37,2013-05-26 03:18:00,
2013-05-25 23:48:00,41.7,41.5,29.65,North,9,3.0,11.0,99,0.00,OVC,SCT,0.51,0.0,WeatherDisplay:10.37,2013-05-26 03:48:00,